sensor_id;sensor_type;location;lat;lon;timestamp;pressure;altitude;pressure_sealevel;temperature;humidity
46347;BME280;32057;47.830;19.046;2024-03-23T00:53:23;99936.16;;;4.98;100.00
46347;BME280;32057;47.830;19.046;2024-03-23T00:55:48;99944.50;;;4.91;100.00
46347;BME280;32057;47.830;19.046;2024-03-23T00:58:13;99933.16;;;5.10;100.00
46347;BME280;32057;47.830;19.046;2024-03-23T01:00:39;99927.66;;;5.01;100.00
46347;BME280;32057;47.830;19.046;2024-03-23T01:03:04;99929.47;;;5.04;100.00
46347;BME280;32057;47.830;19.046;2024-03-23T01:05:30;99924.31;;;5.04;100.00
46347;BME280;32057;47.830;19.046;2024-03-23T01:07:55;99918.66;;;5.14;100.00
46347;BME280;32057;47.830;19.046;2024-03-23T01:10:20;99926.41;;;5.14;100.00
46347;BME280;32057;47.830;19.046;2024-03-23T01:12:46;99921.25;;;5.14;100.00
46347;BME280;32057;47.830;19.046;2024-03-23T01:15:11;99922.25;;;5.19;100.00
46347;BME280;32057;47.830;19.046;2024-03-23T01:17:36;99925.41;;;4.86;100.00
46347;BME280;32057;47.830;19.046;2024-03-23T01:20:02;99916.56;;;4.79;100.00
46347;BME280;32057;47.830;19.046;2024-03-23T01:22:27;99918.94;;;4.73;100.00
46347;BME280;32057;47.830;19.046;2024-03-23T01:24:53;99907.09;;;4.56;100.00
46347;BME280;32057;47.830;19.046;2024-03-23T01:27:18;99910.31;;;4.50;100.00
46347;BME280;32057;47.830;19.046;2024-03-23T01:29:43;99902.22;;;4.41;100.00
46347;BME280;32057;47.830;19.046;2024-03-23T01:32:09;99896.06;;;4.36;100.00
46347;BME280;32057;47.830;19.046;2024-03-23T01:34:34;99902.38;;;4.22;100.00
46347;BME280;32057;47.830;19.046;2024-03-23T01:37:00;99900.34;;;4.35;100.00
46347;BME280;32057;47.830;19.046;2024-03-23T01:39:25;99889.84;;;4.53;100.00
46347;BME280;32057;47.830;19.046;2024-03-23T01:41:51;99886.13;;;4.69;100.00
46347;BME280;32057;47.830;19.046;2024-03-23T01:44:16;99888.00;;;4.73;100.00
46347;BME280;32057;47.830;19.046;2024-03-23T01:46:42;99895.25;;;4.61;100.00
46347;BME280;32057;47.830;19.046;2024-03-23T01:49:08;99885.72;;;4.58;100.00
46347;BME280;32057;47.830;19.046;2024-03-23T01:51:35;99883.56;;;4.47;100.00
46347;BME280;32057;47.830;19.046;2024-03-23T01:54:04;99884.34;;;4.44;100.00
46347;BME280;32057;47.830;19.046;2024-03-23T01:56:34;99874.91;;;4.45;100.00
46347;BME280;32057;47.830;19.046;2024-03-23T01:59:06;99875.31;;;4.55;100.00
46347;BME280;32057;47.830;19.046;2024-03-23T02:01:32;99875.91;;;4.48;100.00
46347;BME280;32057;47.830;19.046;2024-03-23T02:03:58;99877.63;;;4.49;100.00
46347;BME280;32057;47.830;19.046;2024-03-23T02:06:26;99878.00;;;4.58;100.00
46347;BME280;32057;47.830;19.046;2024-03-23T02:08:51;99867.47;;;4.52;100.00
46347;BME280;32057;47.830;19.046;2024-03-23T02:11:17;99870.38;;;4.39;100.00
46347;BME280;32057;47.830;19.046;2024-03-23T02:13:42;99861.91;;;4.19;100.00
46347;BME280;32057;47.830;19.046;2024-03-23T02:16:07;99856.69;;;4.40;100.00
46347;BME280;32057;47.830;19.046;2024-03-23T02:18:33;99862.44;;;4.55;100.00
46347;BME280;32057;47.830;19.046;2024-03-23T02:20:59;99852.59;;;4.45;100.00
46347;BME280;32057;47.830;19.046;2024-03-23T02:23:24;99852.19;;;4.34;100.00
46347;BME280;32057;47.830;19.046;2024-03-23T02:25:50;99845.72;;;4.22;100.00
46347;BME280;32057;47.830;19.046;2024-03-23T02:28:15;99840.78;;;4.28;100.00
46347;BME280;32057;47.830;19.046;2024-03-23T02:30:42;99839.72;;;4.23;100.00
46347;BME280;32057;47.830;19.046;2024-03-23T02:33:07;99834.88;;;4.30;100.00
46347;BME280;32057;47.830;19.046;2024-03-23T02:35:32;99829.53;;;4.48;100.00
46347;BME280;32057;47.830;19.046;2024-03-23T02:37:58;99836.00;;;4.61;100.00
46347;BME280;32057;47.830;19.046;2024-03-23T02:40:23;99829.97;;;4.61;100.00
46347;BME280;32057;47.830;19.046;2024-03-23T02:42:49;99824.50;;;4.51;100.00
46347;BME280;32057;47.830;19.046;2024-03-23T02:45:15;99822.00;;;4.30;100.00
46347;BME280;32057;47.830;19.046;2024-03-23T02:47:40;99821.13;;;4.07;100.00
46347;BME280;32057;47.830;19.046;2024-03-23T02:50:06;99811.28;;;3.97;100.00
46347;BME280;32057;47.830;19.046;2024-03-23T02:52:31;99818.22;;;3.98;100.00
46347;BME280;32057;47.830;19.046;2024-03-23T02:54:57;99810.06;;;4.10;100.00
46347;BME280;32057;47.830;19.046;2024-03-23T02:57:22;99807.22;;;4.02;100.00
46347;BME280;32057;47.830;19.046;2024-03-23T02:59:48;99802.69;;;4.19;100.00
46347;BME280;32057;47.830;19.046;2024-03-23T03:02:14;99798.69;;;4.27;100.00
46347;BME280;32057;47.830;19.046;2024-03-23T03:04:40;99803.53;;;4.42;100.00
46347;BME280;32057;47.830;19.046;2024-03-23T03:07:05;99794.09;;;4.43;100.00
46347;BME280;32057;47.830;19.046;2024-03-23T03:09:30;99796.69;;;4.43;100.00
46347;BME280;32057;47.830;19.046;2024-03-23T03:11:56;99789.28;;;4.52;100.00
46347;BME280;32057;47.830;19.046;2024-03-23T03:14:22;99794.03;;;4.65;100.00
46347;BME280;32057;47.830;19.046;2024-03-23T03:16:47;99789.16;;;4.73;100.00
46347;BME280;32057;47.830;19.046;2024-03-23T03:19:13;99783.00;;;4.68;100.00
46347;BME280;32057;47.830;19.046;2024-03-23T03:21:38;99795.53;;;4.58;100.00
46347;BME280;32057;47.830;19.046;2024-03-23T03:24:06;99786.78;;;4.53;100.00
46347;BME280;32057;47.830;19.046;2024-03-23T03:26:31;99792.91;;;4.57;100.00
46347;BME280;32057;47.830;19.046;2024-03-23T03:28:57;99791.00;;;4.51;100.00
46347;BME280;32057;47.830;19.046;2024-03-23T03:31:22;99783.38;;;4.54;100.00
46347;BME280;32057;47.830;19.046;2024-03-23T03:33:49;99784.50;;;4.63;100.00
46347;BME280;32057;47.830;19.046;2024-03-23T03:36:15;99796.84;;;4.47;100.00
46347;BME280;32057;47.830;19.046;2024-03-23T03:38:40;99785.59;;;4.45;100.00
46347;BME280;32057;47.830;19.046;2024-03-23T03:41:06;99781.16;;;4.41;100.00
46347;BME280;32057;47.830;19.046;2024-03-23T03:43:31;99787.03;;;4.37;100.00
46347;BME280;32057;47.830;19.046;2024-03-23T03:45:58;99788.09;;;4.42;100.00
46347;BME280;32057;47.830;19.046;2024-03-23T03:48:24;99777.00;;;4.21;100.00
46347;BME280;32057;47.830;19.046;2024-03-23T03:50:49;99776.50;;;4.31;100.00
46347;BME280;32057;47.830;19.046;2024-03-23T03:53:14;99771.06;;;4.23;100.00
46347;BME280;32057;47.830;19.046;2024-03-23T03:55:40;99768.75;;;4.07;100.00
46347;BME280;32057;47.830;19.046;2024-03-23T03:58:06;99767.97;;;4.09;100.00
46347;BME280;32057;47.830;19.046;2024-03-23T04:00:31;99767.47;;;4.18;100.00
46347;BME280;32057;47.830;19.046;2024-03-23T04:02:56;99769.56;;;4.28;100.00
46347;BME280;32057;47.830;19.046;2024-03-23T04:05:22;99761.88;;;4.30;100.00
46347;BME280;32057;47.830;19.046;2024-03-23T04:07:47;99761.97;;;4.33;100.00
46347;BME280;32057;47.830;19.046;2024-03-23T04:10:13;99760.53;;;4.39;100.00
46347;BME280;32057;47.830;19.046;2024-03-23T04:12:38;99758.81;;;4.40;100.00
46347;BME280;32057;47.830;19.046;2024-03-23T04:15:04;99759.63;;;4.39;100.00
46347;BME280;32057;47.830;19.046;2024-03-23T04:17:31;99755.97;;;4.32;100.00
46347;BME280;32057;47.830;19.046;2024-03-23T04:20:00;99755.19;;;4.35;100.00
46347;BME280;32057;47.830;19.046;2024-03-23T04:22:26;99761.34;;;4.38;100.00
46347;BME280;32057;47.830;19.046;2024-03-23T04:24:55;99767.19;;;4.34;100.00
46347;BME280;32057;47.830;19.046;2024-03-23T04:27:21;99763.63;;;4.31;100.00
46347;BME280;32057;47.830;19.046;2024-03-23T04:29:48;99759.47;;;4.34;100.00
46347;BME280;32057;47.830;19.046;2024-03-23T04:32:14;99760.69;;;4.44;100.00
46347;BME280;32057;47.830;19.046;2024-03-23T04:34:39;99761.25;;;4.37;100.00
46347;BME280;32057;47.830;19.046;2024-03-23T04:37:04;99757.94;;;4.39;100.00
46347;BME280;32057;47.830;19.046;2024-03-23T04:39:30;99761.91;;;4.31;100.00
46347;BME280;32057;47.830;19.046;2024-03-23T04:41:55;99764.47;;;4.30;100.00
46347;BME280;32057;47.830;19.046;2024-03-23T04:44:20;99755.09;;;4.32;100.00
46347;BME280;32057;47.830;19.046;2024-03-23T04:46:46;99746.94;;;4.44;100.00
46347;BME280;32057;47.830;19.046;2024-03-23T04:49:11;99749.72;;;4.50;100.00
46347;BME280;32057;47.830;19.046;2024-03-23T04:51:37;99750.31;;;4.43;100.00
46347;BME280;32057;47.830;19.046;2024-03-23T04:54:03;99746.03;;;4.43;100.00
46347;BME280;32057;47.830;19.046;2024-03-23T04:56:29;99749.72;;;4.50;100.00
46347;BME280;32057;47.830;19.046;2024-03-23T04:58:54;99746.56;;;4.58;100.00
46347;BME280;32057;47.830;19.046;2024-03-23T05:01:19;99740.09;;;4.70;100.00
46347;BME280;32057;47.830;19.046;2024-03-23T05:03:45;99740.31;;;4.76;100.00
46347;BME280;32057;47.830;19.046;2024-03-23T05:06:10;99737.16;;;4.85;100.00
46347;BME280;32057;47.830;19.046;2024-03-23T05:08:35;99735.69;;;4.91;100.00
46347;BME280;32057;47.830;19.046;2024-03-23T05:11:01;99730.59;;;4.94;100.00
46347;BME280;32057;47.830;19.046;2024-03-23T05:13:26;99733.50;;;5.04;100.00
46347;BME280;32057;47.830;19.046;2024-03-23T05:15:55;99729.47;;;5.12;100.00
46347;BME280;32057;47.830;19.046;2024-03-23T05:18:21;99729.47;;;5.12;100.00
46347;BME280;32057;47.830;19.046;2024-03-23T05:20:46;99726.97;;;5.15;100.00
46347;BME280;32057;47.830;19.046;2024-03-23T05:23:12;99731.47;;;5.21;100.00
46347;BME280;32057;47.830;19.046;2024-03-23T05:25:37;99730.91;;;5.29;100.00
46347;BME280;32057;47.830;19.046;2024-03-23T05:28:03;99726.84;;;5.37;100.00
46347;BME280;32057;47.830;19.046;2024-03-23T05:30:28;99729.50;;;5.41;100.00
46347;BME280;32057;47.830;19.046;2024-03-23T05:32:54;99719.34;;;5.45;100.00
46347;BME280;32057;47.830;19.046;2024-03-23T05:35:19;99728.03;;;5.49;100.00
46347;BME280;32057;47.830;19.046;2024-03-23T05:37:44;99721.19;;;5.49;100.00
46347;BME280;32057;47.830;19.046;2024-03-23T05:40:11;99724.66;;;5.50;100.00
46347;BME280;32057;47.830;19.046;2024-03-23T05:42:38;99721.34;;;5.54;100.00
46347;BME280;32057;47.830;19.046;2024-03-23T05:45:03;99718.00;;;5.58;100.00
46347;BME280;32057;47.830;19.046;2024-03-23T05:47:31;99715.63;;;5.64;100.00
46347;BME280;32057;47.830;19.046;2024-03-23T05:49:57;99709.63;;;5.65;100.00
46347;BME280;32057;47.830;19.046;2024-03-23T05:52:22;99707.75;;;5.61;100.00
46347;BME280;32057;47.830;19.046;2024-03-23T05:54:50;99700.91;;;5.62;100.00
46347;BME280;32057;47.830;19.046;2024-03-23T05:57:15;99695.03;;;5.66;100.00
46347;BME280;32057;47.830;19.046;2024-03-23T05:59:41;99693.53;;;5.74;100.00
46347;BME280;32057;47.830;19.046;2024-03-23T06:02:06;99694.69;;;5.84;100.00
46347;BME280;32057;47.830;19.046;2024-03-23T06:04:32;99703.53;;;5.92;100.00
46347;BME280;32057;47.830;19.046;2024-03-23T06:06:57;99694.31;;;6.00;100.00
46347;BME280;32057;47.830;19.046;2024-03-23T06:09:23;99698.78;;;6.06;100.00
46347;BME280;32057;47.830;19.046;2024-03-23T06:11:48;99689.50;;;6.12;100.00
46347;BME280;32057;47.830;19.046;2024-03-23T06:14:14;99696.44;;;6.15;100.00
46347;BME280;32057;47.830;19.046;2024-03-23T06:16:39;99690.50;;;6.17;100.00
46347;BME280;32057;47.830;19.046;2024-03-23T06:19:04;99685.63;;;6.28;100.00
46347;BME280;32057;47.830;19.046;2024-03-23T06:21:32;99691.13;;;6.41;100.00
46347;BME280;32057;47.830;19.046;2024-03-23T06:23:58;99684.47;;;6.50;100.00
46347;BME280;32057;47.830;19.046;2024-03-23T06:26:23;99681.25;;;6.57;100.00
46347;BME280;32057;47.830;19.046;2024-03-23T06:28:48;99684.94;;;6.67;100.00
46347;BME280;32057;47.830;19.046;2024-03-23T06:31:14;99682.63;;;6.78;100.00
46347;BME280;32057;47.830;19.046;2024-03-23T06:33:40;99682.16;;;6.94;100.00
46347;BME280;32057;47.830;19.046;2024-03-23T06:36:09;99685.88;;;7.06;100.00
46347;BME280;32057;47.830;19.046;2024-03-23T06:38:34;99685.19;;;7.13;100.00
46347;BME280;32057;47.830;19.046;2024-03-23T06:41:02;99686.34;;;7.26;100.00
46347;BME280;32057;47.830;19.046;2024-03-23T06:43:28;99678.03;;;7.41;100.00
46347;BME280;32057;47.830;19.046;2024-03-23T06:45:54;99679.09;;;7.49;100.00
46347;BME280;32057;47.830;19.046;2024-03-23T06:48:20;99677.69;;;7.63;100.00
46347;BME280;32057;47.830;19.046;2024-03-23T06:50:46;99671.06;;;7.76;100.00
46347;BME280;32057;47.830;19.046;2024-03-23T06:53:12;99659.22;;;7.87;100.00
46347;BME280;32057;47.830;19.046;2024-03-23T06:55:38;99661.19;;;7.99;100.00
46347;BME280;32057;47.830;19.046;2024-03-23T06:58:03;99663.94;;;8.07;100.00
46347;BME280;32057;47.830;19.046;2024-03-23T07:00:29;99665.81;;;8.15;100.00
46347;BME280;32057;47.830;19.046;2024-03-23T07:02:54;99661.59;;;8.22;100.00
46347;BME280;32057;47.830;19.046;2024-03-23T07:05:20;99660.97;;;8.34;100.00
46347;BME280;32057;47.830;19.046;2024-03-23T07:07:45;99651.75;;;8.48;100.00
46347;BME280;32057;47.830;19.046;2024-03-23T07:10:10;99647.63;;;8.60;100.00
46347;BME280;32057;47.830;19.046;2024-03-23T07:12:36;99636.63;;;8.73;100.00
46347;BME280;32057;47.830;19.046;2024-03-23T07:15:01;99630.78;;;8.85;100.00
46347;BME280;32057;47.830;19.046;2024-03-23T07:17:26;99630.94;;;8.95;100.00
46347;BME280;32057;47.830;19.046;2024-03-23T07:19:52;99622.44;;;9.06;100.00
46347;BME280;32057;47.830;19.046;2024-03-23T07:22:17;99617.38;;;9.15;100.00
46347;BME280;32057;47.830;19.046;2024-03-23T07:24:44;99614.06;;;9.25;100.00
46347;BME280;32057;47.830;19.046;2024-03-23T07:27:09;99614.22;;;9.37;100.00
46347;BME280;32057;47.830;19.046;2024-03-23T07:29:35;99622.09;;;9.44;100.00
46347;BME280;32057;47.830;19.046;2024-03-23T07:32:01;99619.59;;;9.50;100.00
46347;BME280;32057;47.830;19.046;2024-03-23T07:34:26;99617.03;;;9.53;100.00
46347;BME280;32057;47.830;19.046;2024-03-23T07:36:51;99609.22;;;9.51;100.00
46347;BME280;32057;47.830;19.046;2024-03-23T07:39:17;99610.13;;;9.53;100.00
46347;BME280;32057;47.830;19.046;2024-03-23T07:41:44;99610.13;;;9.56;100.00
46347;BME280;32057;47.830;19.046;2024-03-23T07:44:10;99607.63;;;9.61;100.00
46347;BME280;32057;47.830;19.046;2024-03-23T07:46:35;99609.41;;;9.65;100.00
46347;BME280;32057;47.830;19.046;2024-03-23T07:49:00;99604.22;;;9.68;100.00
46347;BME280;32057;47.830;19.046;2024-03-23T07:51:26;99606.00;;;9.72;100.00
46347;BME280;32057;47.830;19.046;2024-03-23T07:53:51;99609.59;;;9.81;100.00
46347;BME280;32057;47.830;19.046;2024-03-23T07:56:18;99601.03;;;9.91;100.00
46347;BME280;32057;47.830;19.046;2024-03-23T07:58:44;99599.44;;;10.01;100.00
46347;BME280;32057;47.830;19.046;2024-03-23T08:01:17;99596.00;;;10.06;100.00
46347;BME280;32057;47.830;19.046;2024-03-23T08:03:44;99595.22;;;10.13;100.00
46347;BME280;32057;47.830;19.046;2024-03-23T08:06:14;99590.94;;;10.19;100.00
46347;BME280;32057;47.830;19.046;2024-03-23T08:08:40;99589.28;;;10.27;100.00
46347;BME280;32057;47.830;19.046;2024-03-23T08:11:07;99591.13;;;10.35;100.00
46347;BME280;32057;47.830;19.046;2024-03-23T08:13:34;99586.00;;;10.43;100.00
46347;BME280;32057;47.830;19.046;2024-03-23T08:16:00;99587.81;;;10.53;100.00
46347;BME280;32057;47.830;19.046;2024-03-23T08:18:26;99579.22;;;10.64;100.00
46347;BME280;32057;47.830;19.046;2024-03-23T08:21:10;99579.31;;;10.76;100.00
46347;BME280;32057;47.830;19.046;2024-03-23T08:23:36;99572.50;;;10.93;100.00
46347;BME280;32057;47.830;19.046;2024-03-23T08:26:13;99569.97;;;11.01;100.00
46347;BME280;32057;47.830;19.046;2024-03-23T08:28:39;99554.41;;;11.13;100.00
46347;BME280;32057;47.830;19.046;2024-03-23T08:31:07;99552.75;;;11.25;100.00
46347;BME280;32057;47.830;19.046;2024-03-23T08:33:33;99551.00;;;11.30;100.00
46347;BME280;32057;47.830;19.046;2024-03-23T08:36:01;99557.13;;;11.40;100.00
46347;BME280;32057;47.830;19.046;2024-03-23T08:38:28;99557.19;;;11.52;100.00
46347;BME280;32057;47.830;19.046;2024-03-23T08:41:13;99554.66;;;11.70;100.00
46347;BME280;32057;47.830;19.046;2024-03-23T08:43:41;99552.09;;;11.83;100.00
46347;BME280;32057;47.830;19.046;2024-03-23T08:46:07;99541.75;;;12.04;100.00
46347;BME280;32057;47.830;19.046;2024-03-23T08:48:38;99544.38;;;12.21;100.00
46347;BME280;32057;47.830;19.046;2024-03-23T08:51:07;99543.50;;;12.36;100.00
46347;BME280;32057;47.830;19.046;2024-03-23T08:53:33;99537.44;;;12.45;100.00
46347;BME280;32057;47.830;19.046;2024-03-23T08:55:59;99534.81;;;12.55;100.00
46347;BME280;32057;47.830;19.046;2024-03-23T08:58:29;99526.13;;;12.64;100.00
46347;BME280;32057;47.830;19.046;2024-03-23T09:00:55;99517.41;;;12.73;100.00
46347;BME280;32057;47.830;19.046;2024-03-23T09:03:24;99513.00;;;12.97;100.00
46347;BME280;32057;47.830;19.046;2024-03-23T09:05:51;99507.72;;;13.06;100.00
46347;BME280;32057;47.830;19.046;2024-03-23T09:08:16;99500.78;;;13.14;100.00
46347;BME280;32057;47.830;19.046;2024-03-23T09:10:42;99497.22;;;13.29;100.00
46347;BME280;32057;47.830;19.046;2024-03-23T09:13:08;99495.44;;;13.45;100.00
46347;BME280;32057;47.830;19.046;2024-03-23T09:15:34;99494.50;;;13.58;100.00
46347;BME280;32057;47.830;19.046;2024-03-23T09:18:00;99485.69;;;13.74;100.00
46347;BME280;32057;47.830;19.046;2024-03-23T09:20:25;99484.75;;;13.86;100.00
46347;BME280;32057;47.830;19.046;2024-03-23T09:22:51;99483.84;;;13.92;100.00
46347;BME280;32057;47.830;19.046;2024-03-23T09:25:16;99477.69;;;13.98;100.00
46347;BME280;32057;47.830;19.046;2024-03-23T09:27:41;99475.91;;;14.01;100.00
46347;BME280;32057;47.830;19.046;2024-03-23T09:30:07;99469.78;;;14.05;100.00
46347;BME280;32057;47.830;19.046;2024-03-23T09:32:32;99465.38;;;14.12;100.00
46347;BME280;32057;47.830;19.046;2024-03-23T09:34:58;99458.41;;;14.12;100.00
46347;BME280;32057;47.830;19.046;2024-03-23T09:37:23;99460.97;;;14.19;100.00
46347;BME280;32057;47.830;19.046;2024-03-23T09:39:48;99460.03;;;14.24;100.00
46347;BME280;32057;47.830;19.046;2024-03-23T09:42:13;99458.28;;;14.25;100.00
46347;BME280;32057;47.830;19.046;2024-03-23T09:44:40;99456.53;;;14.28;100.00
46347;BME280;32057;47.830;19.046;2024-03-23T09:47:05;99446.84;;;14.33;100.00
46347;BME280;32057;47.830;19.046;2024-03-23T09:49:31;99441.63;;;14.37;100.00
46347;BME280;32057;47.830;19.046;2024-03-23T09:51:57;99436.38;;;14.37;100.00
46347;BME280;32057;47.830;19.046;2024-03-23T09:54:24;99431.09;;;14.41;100.00
46347;BME280;32057;47.830;19.046;2024-03-23T09:56:49;99431.00;;;14.50;100.00
46347;BME280;32057;47.830;19.046;2024-03-23T09:59:15;99423.00;;;14.67;100.00
46347;BME280;32057;47.830;19.046;2024-03-23T10:01:40;99416.81;;;14.73;100.00
46347;BME280;32057;47.830;19.046;2024-03-23T10:04:06;99409.69;;;14.87;100.00
46347;BME280;32057;47.830;19.046;2024-03-23T10:06:32;99407.72;;;15.05;100.00
46347;BME280;32057;47.830;19.046;2024-03-23T10:08:59;99399.69;;;15.17;100.00
46347;BME280;32057;47.830;19.046;2024-03-23T10:11:24;99392.66;;;15.22;100.00
46347;BME280;32057;47.830;19.046;2024-03-23T10:13:50;99389.75;;;15.41;100.00
46347;BME280;32057;47.830;19.046;2024-03-23T10:16:23;99387.97;;;15.46;100.00
46347;BME280;32057;47.830;19.046;2024-03-23T10:18:49;99393.19;;;15.46;100.00
46347;BME280;32057;47.830;19.046;2024-03-23T10:21:15;99380.78;;;15.56;100.00
46347;BME280;32057;47.830;19.046;2024-03-23T10:23:42;99379.84;;;15.61;100.00
46347;BME280;32057;47.830;19.046;2024-03-23T10:26:24;99371.00;;;15.67;100.00
46347;BME280;32057;47.830;19.046;2024-03-23T10:28:58;99375.28;;;15.76;100.00
46347;BME280;32057;47.830;19.046;2024-03-23T10:31:27;99374.31;;;15.81;100.00
46347;BME280;32057;47.830;19.046;2024-03-23T10:33:53;99368.94;;;15.87;100.00
46347;BME280;32057;47.830;19.046;2024-03-23T10:36:20;99364.31;;;16.03;100.00
46347;BME280;32057;47.830;19.046;2024-03-23T10:38:46;99361.66;;;16.05;100.00
46347;BME280;32057;47.830;19.046;2024-03-23T10:41:12;99351.91;;;16.11;100.00
46347;BME280;32057;47.830;19.046;2024-03-23T10:43:38;99340.34;;;16.23;100.00
46347;BME280;32057;47.830;19.046;2024-03-23T10:46:04;99340.97;;;16.36;100.00
46347;BME280;32057;47.830;19.046;2024-03-23T10:48:31;99340.88;;;16.42;100.00
46347;BME280;32057;47.830;19.046;2024-03-23T10:50:56;99337.03;;;16.59;100.00
46347;BME280;32057;47.830;19.046;2024-03-23T10:53:25;99335.94;;;16.69;100.00
46347;BME280;32057;47.830;19.046;2024-03-23T10:55:51;99326.97;;;16.79;100.00
46347;BME280;32057;47.830;19.046;2024-03-23T10:58:19;99322.44;;;16.87;100.00
46347;BME280;32057;47.830;19.046;2024-03-23T11:00:47;99310.09;;;16.92;100.00
46347;BME280;32057;47.830;19.046;2024-03-23T11:03:32;99303.84;;;16.98;100.00
46347;BME280;32057;47.830;19.046;2024-03-23T11:05:59;99291.44;;;17.03;100.00
46347;BME280;32057;47.830;19.046;2024-03-23T11:08:37;99289.53;;;17.11;100.00
46347;BME280;32057;47.830;19.046;2024-03-23T11:13:46;99274.53;;;17.15;100.00
46347;BME280;32057;47.830;19.046;2024-03-23T11:16:16;99270.97;;;17.18;100.00
46347;BME280;32057;47.830;19.046;2024-03-23T11:18:43;99262.00;;;17.26;99.62
46347;BME280;32057;47.830;19.046;2024-03-23T11:21:09;99251.25;;;17.36;100.00
46347;BME280;32057;47.830;19.046;2024-03-23T11:23:34;99248.34;;;17.46;100.00
46347;BME280;32057;47.830;19.046;2024-03-23T11:25:59;99251.75;;;17.51;100.00
46347;BME280;32057;47.830;19.046;2024-03-23T11:28:25;99245.53;;;17.54;99.17
46347;BME280;32057;47.830;19.046;2024-03-23T11:30:50;99243.78;;;17.53;98.03
46347;BME280;32057;47.830;19.046;2024-03-23T11:33:16;99237.91;;;17.78;96.99
46347;BME280;32057;47.830;19.046;2024-03-23T11:35:41;99230.59;;;17.89;93.50
46347;BME280;32057;47.830;19.046;2024-03-23T11:40:38;99217.22;;;17.98;93.20
46347;BME280;32057;47.830;19.046;2024-03-23T11:43:05;99223.28;;;18.00;92.55
46347;BME280;32057;47.830;19.046;2024-03-23T11:45:50;99210.16;;;17.99;92.17
46347;BME280;32057;47.830;19.046;2024-03-23T11:48:22;99200.56;;;17.98;91.69
46347;BME280;32057;47.830;19.046;2024-03-23T11:50:49;99196.31;;;17.92;93.56
46347;BME280;32057;47.830;19.046;2024-03-23T11:53:17;99196.47;;;17.87;93.07
46347;BME280;32057;47.830;19.046;2024-03-23T11:55:47;99194.59;;;17.91;89.51
46347;BME280;32057;47.830;19.046;2024-03-23T11:58:14;99185.94;;;17.87;91.06
46347;BME280;32057;47.830;19.046;2024-03-23T12:00:40;99183.34;;;17.86;92.05
46347;BME280;32057;47.830;19.046;2024-03-23T12:03:06;99178.97;;;17.85;92.37
46347;BME280;32057;47.830;19.046;2024-03-23T12:05:32;99185.94;;;17.87;90.58
46347;BME280;32057;47.830;19.046;2024-03-23T12:08:23;99169.41;;;17.81;89.60
46347;BME280;32057;47.830;19.046;2024-03-23T12:11:04;99165.06;;;17.80;90.38
46347;BME280;32057;47.830;19.046;2024-03-23T12:13:30;99155.41;;;17.79;91.69
46347;BME280;32057;47.830;19.046;2024-03-23T12:16:12;99142.22;;;17.80;97.78
46347;BME280;32057;47.830;19.046;2024-03-23T12:18:39;99134.31;;;17.82;99.94
46347;BME280;32057;47.830;19.046;2024-03-23T12:21:05;99126.41;;;17.82;100.00
46347;BME280;32057;47.830;19.046;2024-03-23T12:23:30;99122.03;;;17.81;99.25
46347;BME280;32057;47.830;19.046;2024-03-23T12:25:56;99121.25;;;17.77;91.82
46347;BME280;32057;47.830;19.046;2024-03-23T12:28:21;99114.28;;;17.76;97.09
46347;BME280;32057;47.830;19.046;2024-03-23T12:30:46;99113.44;;;17.76;84.79
46347;BME280;32057;47.830;19.046;2024-03-23T12:33:12;99107.25;;;17.77;85.79
46347;BME280;32057;47.830;19.046;2024-03-23T12:35:37;99103.72;;;17.78;82.07
46347;BME280;32057;47.830;19.046;2024-03-23T12:38:03;99105.47;;;17.77;80.86
46347;BME280;32057;47.830;19.046;2024-03-23T12:40:28;99095.03;;;17.74;77.12
46347;BME280;32057;47.830;19.046;2024-03-23T12:42:54;99093.28;;;17.75;76.54
46347;BME280;32057;47.830;19.046;2024-03-23T12:45:19;99092.41;;;17.74;76.98
46347;BME280;32057;47.830;19.046;2024-03-23T12:47:44;99095.91;;;17.75;81.68
46347;BME280;32057;47.830;19.046;2024-03-23T12:50:10;99087.16;;;17.74;81.87
46347;BME280;32057;47.830;19.046;2024-03-23T12:52:36;99083.66;;;17.74;74.75
46347;BME280;32057;47.830;19.046;2024-03-23T12:55:01;99079.34;;;17.71;72.50
46347;BME280;32057;47.830;19.046;2024-03-23T12:57:28;99080.34;;;17.67;72.63
46347;BME280;32057;47.830;19.046;2024-03-23T12:59:54;99074.25;;;17.65;72.31
46347;BME280;32057;47.830;19.046;2024-03-23T13:02:21;99066.44;;;17.63;72.84
46347;BME280;32057;47.830;19.046;2024-03-23T13:04:52;99070.09;;;17.58;72.02
46347;BME280;32057;47.830;19.046;2024-03-23T13:07:18;99065.72;;;17.57;72.62
46347;BME280;32057;47.830;19.046;2024-03-23T13:09:43;99059.59;;;17.56;71.17
46347;BME280;32057;47.830;19.046;2024-03-23T13:12:09;99058.66;;;17.59;74.21
46347;BME280;32057;47.830;19.046;2024-03-23T13:14:35;99059.50;;;17.59;70.21
46347;BME280;32057;47.830;19.046;2024-03-23T13:17:00;99063.09;;;17.57;70.28
46347;BME280;32057;47.830;19.046;2024-03-23T13:19:27;99052.56;;;17.57;69.05
46347;BME280;32057;47.830;19.046;2024-03-23T13:22:02;99053.56;;;17.52;70.72
46347;BME280;32057;47.830;19.046;2024-03-23T13:24:28;99050.97;;;17.51;68.12
46347;BME280;32057;47.830;19.046;2024-03-23T13:26:54;99048.34;;;17.51;70.49
46347;BME280;32057;47.830;19.046;2024-03-23T13:29:20;99042.38;;;17.46;74.03
46347;BME280;32057;47.830;19.046;2024-03-23T13:31:47;99038.00;;;17.45;69.00
46347;BME280;32057;47.830;19.046;2024-03-23T13:34:13;99040.56;;;17.48;68.27
46347;BME280;32057;47.830;19.046;2024-03-23T13:36:42;99040.59;;;17.46;68.77
46347;BME280;32057;47.830;19.046;2024-03-23T13:39:08;99027.63;;;17.40;71.47
46347;BME280;32057;47.830;19.046;2024-03-23T13:41:40;99033.91;;;17.35;70.20